Time;durP1;ratioP1;P1;durP2;ratioP2;P2;SDS_P1;SDS_P2;PMS_P1;PMS_P2;Temp;Humidity;BMP_temperature;BMP_pressure;BME280_temperature;BME280_humidity;BME280_pressure;Samples;Min_cycle;Max_cycle;Signal;HPM_P1;HPM_P2
2021/10/10 00:00:57;;;;;;;18.80;11.05;;;;;;;12.21;60.54;102725.56;4833398;28;120260;-75
2021/10/10 00:03:23;;;;;;;17.27;10.18;;;;;;;12.19;60.46;102721.66;4847815;28;120386;-74
2021/10/10 00:05:49;;;;;;;20.02;11.05;;;;;;;12.17;60.62;102724.03;4846237;28;120349;-75
2021/10/10 00:08:15;;;;;;;14.98;10.55;;;;;;;12.09;60.97;102711.56;4850259;28;119958;-75
2021/10/10 00:10:42;;;;;;;20.55;11.75;;;;;;;12.08;60.77;102710.78;4821937;28;119783;-75
2021/10/10 00:13:07;;;;;;;17.05;11.82;;;;;;;12.14;61.12;102713.88;4856983;28;119775;-74
2021/10/10 00:15:36;;;;;;;19.98;11.30;;;;;;;12.11;61.19;102712.72;4855887;28;119470;-75
2021/10/10 00:18:03;;;;;;;18.00;11.27;;;;;;;12.07;61.46;102702.97;4844465;28;119503;-75
2021/10/10 00:20:28;;;;;;;22.33;11.85;;;;;;;12.07;61.06;102709.25;4843587;28;119804;-76
2021/10/10 00:22:54;;;;;;;19.92;12.18;;;;;;;12.03;61.43;102691.97;4832665;28;119269;-74
2021/10/10 00:25:20;;;;;;;19.67;11.68;;;;;;;12.12;61.27;102711.53;4846026;28;119292;-75
2021/10/10 00:27:46;;;;;;;17.98;10.30;;;;;;;12.13;60.77;102707.59;4847745;28;119822;-75
2021/10/10 00:30:13;;;;;;;17.70;10.35;;;;;;;12.13;60.62;102713.09;4830671;28;120448;-76
2021/10/10 00:32:39;;;;;;;21.42;11.23;;;;;;;12.09;60.40;102704.09;4867873;28;120436;-76
2021/10/10 00:35:06;;;;;;;15.05;10.48;;;;;;;12.03;60.15;102702.19;4844109;28;119943;-74
2021/10/10 00:37:32;;;;;;;16.83;10.25;;;;;;;12.03;60.56;102719.47;4847004;28;119708;-75
2021/10/10 00:39:58;;;;;;;16.55;10.85;;;;;;;11.97;60.34;102699.91;4847053;28;119745;-75
2021/10/10 00:42:24;;;;;;;16.25;10.40;;;;;;;11.94;60.61;102705.44;4829602;28;119294;-74
2021/10/10 00:44:50;;;;;;;20.00;11.02;;;;;;;11.96;60.47;102705.81;4830017;28;119583;-75
2021/10/10 00:47:20;;;;;;;16.58;10.23;;;;;;;11.76;60.38;102678.13;4846136;28;121025;-75
2021/10/10 00:49:45;;;;;;;15.50;9.65;;;;;;;11.91;60.61;102703.53;4814822;28;120785;-75
2021/10/10 00:52:17;;;;;;;19.20;10.32;;;;;;;11.87;60.43;102700.81;4836227;28;119265;-78
2021/10/10 00:54:49;;;;;;;19.60;10.95;;;;;;;11.82;60.28;102692.22;4844711;28;121855;-76
2021/10/10 00:57:18;;;;;;;16.30;10.68;;;;;;;11.86;60.26;102698.47;4820024;29;119727;-75
2021/10/10 00:59:48;;;;;;;15.73;10.27;;;;;;;11.84;60.35;102703.63;4816574;29;120496;-77
2021/10/10 01:02:15;;;;;;;17.13;10.48;;;;;;;11.81;60.35;102699.69;4843953;28;122080;-75
2021/10/10 01:04:41;;;;;;;18.75;11.05;;;;;;;11.79;60.12;102698.53;4847531;28;120261;-75
2021/10/10 01:07:09;;;;;;;16.70;9.90;;;;;;;11.71;60.31;102686.81;4848280;28;119670;-75
2021/10/10 01:09:36;;;;;;;19.40;11.27;;;;;;;11.73;59.97;102689.94;4842795;28;121471;-75
2021/10/10 01:12:07;;;;;;;19.60;10.93;;;;;;;11.71;60.54;102686.03;4824816;28;119955;-75
2021/10/10 01:14:36;;;;;;;20.15;10.95;;;;;;;11.64;60.25;102687.69;4852194;28;120960;-75
2021/10/10 01:17:03;;;;;;;20.58;10.95;;;;;;;11.58;60.32;102678.28;4848177;28;120063;-75
2021/10/10 01:19:30;;;;;;;26.98;10.40;;;;;;;11.56;60.20;102688.16;4849152;28;120949;-75
2021/10/10 01:21:58;;;;;;;17.88;9.82;;;;;;;11.49;60.41;102683.50;4817272;28;122192;-76
2021/10/10 01:24:24;;;;;;;17.33;11.07;;;;;;;11.48;60.27;102681.16;4825549;28;120490;-75
2021/10/10 01:26:51;;;;;;;18.67;9.80;;;;;;;11.46;60.10;102673.34;4845560;28;120059;-74
2021/10/10 01:29:18;;;;;;;17.83;10.30;;;;;;;11.45;60.36;102671.78;4843404;28;119776;-75
2021/10/10 01:31:44;;;;;;;19.70;10.05;;;;;;;11.43;60.20;102660.41;4846597;28;120272;-75
2021/10/10 01:34:11;;;;;;;18.65;10.05;;;;;;;11.43;59.94;102665.91;4848990;28;119375;-77
2021/10/10 01:36:38;;;;;;;18.45;9.57;;;;;;;11.41;60.33;102660.03;4836196;28;120437;-77
2021/10/10 01:39:05;;;;;;;16.80;9.95;;;;;;;11.36;60.04;102655.78;4832011;28;119615;-75
2021/10/10 01:41:31;;;;;;;19.10;10.85;;;;;;;11.40;59.71;102657.69;4848543;28;119651;-75
2021/10/10 01:43:57;;;;;;;15.88;10.30;;;;;;;11.33;59.83;102644.78;4818795;28;119823;-75
2021/10/10 01:46:22;;;;;;;17.00;9.98;;;;;;;11.37;60.35;102656.56;4823028;28;119709;-75
2021/10/10 01:48:49;;;;;;;15.88;10.73;;;;;;;11.35;60.03;102645.16;4849285;28;119707;-75
2021/10/10 01:51:19;;;;;;;19.67;10.32;;;;;;;11.32;59.97;102644.00;4837967;28;119966;-75
2021/10/10 01:53:46;;;;;;;17.67;10.85;;;;;;;11.22;59.94;102619.41;4845101;28;119707;-75
2021/10/10 01:56:12;;;;;;;14.32;10.18;;;;;;;11.27;59.93;102636.22;4816105;28;121388;-75
2021/10/10 01:58:37;;;;;;;18.80;11.07;;;;;;;11.20;59.80;102624.53;4850735;28;119313;-75
2021/10/10 02:01:03;;;;;;;17.52;10.07;;;;;;;11.22;59.56;102635.88;4834464;28;119859;-75
2021/10/10 02:03:29;;;;;;;17.67;10.40;;;;;;;11.19;60.01;102629.25;4833623;28;119616;-75
2021/10/10 02:05:55;;;;;;;14.48;9.45;;;;;;;11.11;60.11;102624.97;4846251;28;120334;-74
2021/10/10 02:08:21;;;;;;;17.40;10.13;;;;;;;11.16;60.02;102621.03;4845939;28;120830;-75
2021/10/10 02:10:47;;;;;;;16.75;10.57;;;;;;;11.07;59.96;102611.28;4832793;28;119966;-75
2021/10/10 02:13:13;;;;;;;15.45;9.93;;;;;;;11.12;60.28;102614.78;4829158;28;119843;-75
2021/10/10 02:15:40;;;;;;;16.65;9.50;;;;;;;11.10;59.94;102622.66;4844818;28;119916;-75
2021/10/10 02:18:07;;;;;;;18.05;11.00;;;;;;;11.10;60.38;102614.41;4832836;28;119481;-75
2021/10/10 02:20:33;;;;;;;15.95;10.25;;;;;;;11.07;60.37;102605.03;4847358;28;121587;-74
2021/10/10 02:22:59;;;;;;;15.98;10.43;;;;;;;11.07;59.77;102605.03;4852596;28;119415;-75
2021/10/10 02:25:25;;;;;;;15.05;10.05;;;;;;;11.00;59.90;102588.63;4827443;28;123072;-75
2021/10/10 02:27:51;;;;;;;16.17;9.20;;;;;;;10.99;60.10;102593.31;4831279;28;120275;-75
2021/10/10 02:30:20;;;;;;;17.73;10.25;;;;;;;10.92;60.04;102581.63;4833428;28;119781;-75
2021/10/10 02:32:46;;;;;;;14.68;9.13;;;;;;;10.97;60.27;102592.19;4817838;29;121356;-75
2021/10/10 02:35:12;;;;;;;16.10;10.23;;;;;;;10.96;60.29;102596.88;4844736;28;123990;-75
2021/10/10 02:37:38;;;;;;;16.88;10.10;;;;;;;10.88;60.18;102584.41;4831275;28;119864;-76
2021/10/10 02:40:06;;;;;;;18.75;10.23;;;;;;;10.93;60.52;102600.44;4846735;28;121643;-74
2021/10/10 02:42:31;;;;;;;16.90;9.68;;;;;;;10.93;60.37;102589.47;4822319;28;122384;-75
2021/10/10 02:44:59;;;;;;;17.10;9.60;;;;;;;10.92;60.51;102582.41;4819453;28;121115;-75
2021/10/10 02:47:24;;;;;;;18.88;9.80;;;;;;;10.83;60.51;102573.84;4846509;28;121834;-75
2021/10/10 02:49:51;;;;;;;17.92;9.48;;;;;;;10.83;60.33;102573.84;4815335;28;119357;-75
2021/10/10 02:52:17;;;;;;;16.27;9.45;;;;;;;10.85;60.09;102576.19;4839490;28;119905;-75
2021/10/10 02:54:43;;;;;;;16.95;10.05;;;;;;;10.80;59.95;102565.66;4845537;28;119855;-75
2021/10/10 02:57:11;;;;;;;14.13;9.55;;;;;;;10.87;60.03;102582.84;4822731;28;119580;-75
2021/10/10 02:59:37;;;;;;;16.38;9.38;;;;;;;10.79;60.26;102572.34;4848196;28;120481;-75
2021/10/10 03:02:02;;;;;;;16.42;9.23;;;;;;;10.81;60.32;102578.97;4850266;28;119787;-75
2021/10/10 03:04:28;;;;;;;17.98;10.05;;;;;;;10.76;60.25;102557.47;4843033;28;120249;-75
2021/10/10 03:06:54;;;;;;;16.77;10.88;;;;;;;10.80;60.27;102563.69;4850146;28;121619;-74
2021/10/10 03:09:20;;;;;;;16.33;9.25;;;;;;;10.82;60.33;102560.53;4843865;28;119582;-74
2021/10/10 03:11:46;;;;;;;17.92;10.05;;;;;;;10.80;60.62;102558.19;4816988;28;119749;-74
2021/10/10 03:14:12;;;;;;;18.98;10.50;;;;;;;10.82;60.53;102566.81;4846619;28;119799;-75
2021/10/10 03:16:38;;;;;;;18.58;10.05;;;;;;;10.78;60.23;102555.09;4845908;28;120157;-77
2021/10/10 03:19:03;;;;;;;17.33;10.30;;;;;;;10.75;60.16;102561.38;4831923;28;119564;-75
2021/10/10 03:21:30;;;;;;;13.80;9.52;;;;;;;10.75;60.35;102550.41;4819836;28;121705;-75
2021/10/10 03:23:57;;;;;;;16.40;10.30;;;;;;;10.71;59.90;102550.44;4846354;28;119599;-74
2021/10/10 03:26:23;;;;;;;17.27;9.95;;;;;;;10.72;60.13;102554.75;4846497;28;120171;-74
2021/10/10 03:28:49;;;;;;;15.25;10.10;;;;;;;10.75;60.60;102555.91;4831688;28;120103;-74
2021/10/10 03:31:16;;;;;;;17.40;10.60;;;;;;;10.72;60.52;102545.72;4828146;28;121315;-74
2021/10/10 03:33:42;;;;;;;15.98;10.07;;;;;;;10.69;61.12;102536.34;4838166;28;120206;-77
2021/10/10 03:36:10;;;;;;;22.63;11.13;;;;;;;10.73;61.18;102530.81;4829798;28;119379;-75
2021/10/10 03:38:37;;;;;;;17.77;11.15;;;;;;;10.78;61.21;102538.59;4846150;28;119976;-74
2021/10/10 03:41:04;;;;;;;18.35;11.23;;;;;;;10.82;61.18;102530.34;4848605;28;119458;-74
2021/10/10 03:43:30;;;;;;;16.85;11.10;;;;;;;10.84;61.46;102528.75;4835516;28;119679;-74
2021/10/10 03:45:57;;;;;;;20.55;12.00;;;;;;;10.86;61.32;102526.38;4841798;28;119312;-74
2021/10/10 03:48:26;;;;;;;18.20;11.70;;;;;;;10.80;62.00;102514.28;4829494;28;119226;-75
2021/10/10 03:50:52;;;;;;;19.13;11.43;;;;;;;10.87;61.58;102519.69;4846215;28;120794;-75
2021/10/10 03:53:18;;;;;;;18.13;11.48;;;;;;;10.93;61.92;102523.56;4830955;28;120985;-75
2021/10/10 03:55:45;;;;;;;17.13;10.57;;;;;;;10.93;61.30;102523.56;4862078;28;120778;-75
2021/10/10 03:58:14;;;;;;;17.42;11.13;;;;;;;10.96;61.66;102520.00;4840865;28;120356;-74
2021/10/10 04:00:41;;;;;;;17.48;11.60;;;;;;;10.98;61.66;102525.88;4843002;28;119648;-75
2021/10/10 04:03:09;;;;;;;18.65;11.35;;;;;;;11.00;61.67;102528.97;4834806;28;119871;-76
2021/10/10 04:05:39;;;;;;;18.90;10.52;;;;;;;10.98;61.78;102514.88;4848571;28;120485;-75
2021/10/10 04:08:05;;;;;;;17.88;11.32;;;;;;;11.03;61.67;102522.66;4821099;28;120112;-75
2021/10/10 04:10:31;;;;;;;19.05;11.18;;;;;;;11.06;61.52;102518.31;4830536;29;119629;-75
2021/10/10 04:12:57;;;;;;;21.42;11.32;;;;;;;11.04;61.57;102512.47;4843260;28;120524;-75
2021/10/10 04:15:23;;;;;;;16.77;11.00;;;;;;;11.11;61.91;102517.09;4860670;28;119539;-75
2021/10/10 04:17:49;;;;;;;17.88;10.90;;;;;;;11.08;61.80;102508.47;4843112;28;119316;-76
2021/10/10 04:20:17;;;;;;;16.83;10.90;;;;;;;11.13;61.91;102512.00;4829412;28;120837;-75
2021/10/10 04:22:45;;;;;;;23.27;11.90;;;;;;;11.17;62.04;102519.00;4841686;28;119802;-75
2021/10/10 04:25:12;;;;;;;18.48;11.07;;;;;;;11.19;61.80;102507.59;4842038;28;120469;-75
2021/10/10 04:27:39;;;;;;;18.85;11.43;;;;;;;11.09;61.39;102490.03;4820597;29;120178;-75
2021/10/10 04:30:07;;;;;;;20.08;11.23;;;;;;;11.18;61.63;102506.81;4844015;28;119866;-75
2021/10/10 04:32:33;;;;;;;16.67;11.20;;;;;;;11.16;61.43;102502.94;4846875;28;119839;-76
2021/10/10 04:34:59;;;;;;;19.65;11.20;;;;;;;11.15;61.41;102496.66;4834539;28;119186;-76
2021/10/10 04:37:25;;;;;;;18.42;11.82;;;;;;;11.23;61.57;102506.38;4831095;28;119436;-75
2021/10/10 04:39:51;;;;;;;20.52;12.00;;;;;;;11.23;61.57;102502.84;4846064;28;119418;-74
2021/10/10 04:42:19;;;;;;;19.58;11.15;;;;;;;11.23;61.49;102505.59;4852931;28;119847;-74
2021/10/10 04:44:45;;;;;;;16.17;10.50;;;;;;;11.25;61.33;102505.94;4846209;28;120539;-75
2021/10/10 04:47:11;;;;;;;18.05;11.18;;;;;;;11.25;61.52;102505.94;4849504;28;119279;-75
2021/10/10 04:49:36;;;;;;;15.55;10.57;;;;;;;11.17;61.25;102488.78;4821131;28;119245;-75
2021/10/10 04:52:03;;;;;;;16.33;11.00;;;;;;;11.21;61.40;102491.47;4840282;28;120024;-75
2021/10/10 04:54:33;;;;;;;18.95;11.70;;;;;;;11.21;61.46;102492.25;4849832;28;119886;-75
2021/10/10 04:57:00;;;;;;;19.85;12.05;;;;;;;11.27;61.40;102498.06;4846714;28;120408;-75
2021/10/10 04:59:26;;;;;;;16.55;11.48;;;;;;;11.24;61.13;102493.41;4844224;28;119566;-75
2021/10/10 05:01:51;;;;;;;17.95;11.85;;;;;;;11.24;61.01;102496.16;4843697;28;119903;-75
2021/10/10 05:04:17;;;;;;;22.63;12.00;;;;;;;11.20;61.16;102487.19;4851228;28;119763;-75
2021/10/10 05:06:43;;;;;;;22.23;12.13;;;;;;;11.18;60.90;102484.84;4849220;28;120830;-75
2021/10/10 05:09:09;;;;;;;19.63;12.55;;;;;;;11.16;61.08;102480.97;4820203;28;120443;-75
2021/10/10 05:11:35;;;;;;;21.67;12.50;;;;;;;11.18;61.36;102479.34;4852508;28;119223;-75
2021/10/10 05:14:01;;;;;;;18.52;12.18;;;;;;;11.18;61.27;102487.59;4844812;28;124209;-75
2021/10/10 05:16:27;;;;;;;18.88;12.35;;;;;;;11.17;61.27;102477.03;4851827;28;119833;-75
2021/10/10 05:18:53;;;;;;;17.27;12.10;;;;;;;11.11;61.41;102473.91;4837363;28;120699;-74
2021/10/10 05:21:20;;;;;;;17.15;12.00;;;;;;;11.13;61.38;102477.06;4837628;28;119457;-75
2021/10/10 05:23:46;;;;;;;16.15;11.75;;;;;;;11.17;60.92;102475.06;4828734;28;119293;-75
2021/10/10 05:26:12;;;;;;;17.40;11.98;;;;;;;11.16;61.38;102472.72;4847044;28;120336;-77
2021/10/10 05:28:39;;;;;;;17.80;12.32;;;;;;;11.17;61.16;102472.31;4835269;28;120069;-75
2021/10/10 05:31:06;;;;;;;19.05;12.50;;;;;;;11.19;61.64;102477.38;4836739;28;120874;-74
2021/10/10 05:33:31;;;;;;;21.10;12.20;;;;;;;11.16;61.46;102472.72;4828676;29;121427;-75
2021/10/10 05:35:57;;;;;;;17.52;12.00;;;;;;;11.17;61.22;102466.81;4830364;28;120689;-75
2021/10/10 05:38:23;;;;;;;18.48;12.43;;;;;;;11.17;61.22;102472.31;4848814;28;120645;-75
2021/10/10 05:40:48;;;;;;;17.85;11.98;;;;;;;11.18;61.00;102462.88;4841714;28;120457;-75
2021/10/10 05:43:14;;;;;;;16.88;12.32;;;;;;;11.22;61.31;102465.56;4849639;28;119940;-75
2021/10/10 05:45:40;;;;;;;18.33;12.30;;;;;;;11.23;61.19;102462.41;4835376;28;121896;-75
2021/10/10 05:48:06;;;;;;;18.60;12.57;;;;;;;11.20;61.46;102455.00;4849115;28;119298;-75
2021/10/10 05:50:33;;;;;;;18.90;12.18;;;;;;;11.17;61.54;102447.59;4818627;28;120856;-75
2021/10/10 05:53:06;;;;;;;21.85;12.90;;;;;;;11.27;61.57;102460.41;4834267;28;120276;-76
2021/10/10 05:55:34;;;;;;;18.55;12.55;;;;;;;11.25;61.65;102446.28;4861796;28;119967;-75
2021/10/10 05:58:03;;;;;;;20.10;11.90;;;;;;;11.32;61.70;102456.41;4833559;28;120000;-74
2021/10/10 06:00:29;;;;;;;19.92;12.80;;;;;;;11.33;61.45;102455.22;4834451;28;120072;-75
2021/10/10 06:02:56;;;;;;;22.65;12.85;;;;;;;11.30;61.84;102440.34;4847964;28;119822;-75
2021/10/10 06:05:23;;;;;;;17.75;12.35;;;;;;;11.37;61.91;102447.72;4828173;28;120203;-75
2021/10/10 06:07:50;;;;;;;18.77;12.13;;;;;;;11.40;61.75;102441.41;4845114;28;119467;-74
2021/10/10 06:10:16;;;;;;;17.90;12.68;;;;;;;11.40;61.97;102433.16;4849110;28;120347;-75
2021/10/10 06:12:42;;;;;;;21.25;13.85;;;;;;;11.45;61.85;102432.69;4850971;28;120226;-75
2021/10/10 06:15:09;;;;;;;17.73;12.43;;;;;;;11.40;62.26;102413.94;4832868;28;119815;-75
2021/10/10 06:17:37;;;;;;;18.38;12.05;;;;;;;11.53;61.67;102423.16;4837849;28;121136;-75
2021/10/10 06:20:06;;;;;;;18.25;12.25;;;;;;;11.56;61.73;102427.03;4843672;28;119653;-75
2021/10/10 06:22:35;;;;;;;17.85;12.32;;;;;;;11.58;61.97;102430.91;4831294;28;120887;-75
2021/10/10 06:25:03;;;;;;;22.23;13.55;;;;;;;11.48;61.83;102409.88;4836648;28;119988;-75
2021/10/10 06:27:29;;;;;;;18.63;12.15;;;;;;;11.50;61.76;102410.22;4802104;28;119392;-75
2021/10/10 06:29:55;;;;;;;20.73;12.10;;;;;;;11.64;61.60;102429.28;4832701;28;119820;-75
2021/10/10 06:32:21;;;;;;;22.88;13.05;;;;;;;11.61;61.86;102423.84;4846953;28;120115;-75
2021/10/10 06:34:47;;;;;;;19.33;12.07;;;;;;;11.68;62.13;102429.22;4842930;28;121609;-74
2021/10/10 06:37:13;;;;;;;20.20;12.18;;;;;;;11.69;62.20;102426.06;4849897;28;119621;-75
2021/10/10 06:39:39;;;;;;;21.73;12.70;;;;;;;11.78;61.83;102433.00;4853684;28;122698;-75
2021/10/10 06:42:05;;;;;;;20.10;11.68;;;;;;;11.83;62.13;102435.28;4835305;28;121030;-75
2021/10/10 06:44:33;;;;;;;19.63;12.32;;;;;;;11.87;61.93;102434.06;4836571;28;120426;-74
2021/10/10 06:47:01;;;;;;;20.63;12.30;;;;;;;11.94;62.05;102435.94;4841144;28;123200;-76
2021/10/10 06:49:28;;;;;;;18.75;11.70;;;;;;;11.92;62.06;102424.56;4847368;28;119495;-75
2021/10/10 06:51:54;;;;;;;18.40;12.15;;;;;;;12.07;62.06;102427.88;4860622;28;120451;-75
2021/10/10 06:54:20;;;;;;;20.85;12.18;;;;;;;12.11;62.26;102429.38;4833306;28;120847;-76
2021/10/10 06:56:52;;;;;;;21.05;12.70;;;;;;;12.17;61.91;102426.91;4849723;28;119969;-75
2021/10/10 06:59:17;;;;;;;20.35;11.93;;;;;;;12.26;62.17;102438.91;4840714;28;120118;-74
2021/10/10 07:01:44;;;;;;;19.55;11.70;;;;;;;12.31;61.95;102439.66;4849314;28;119524;-74
2021/10/10 07:04:11;;;;;;;20.10;12.20;;;;;;;12.34;61.97;102444.31;4832266;28;122298;-75
2021/10/10 07:06:38;;;;;;;22.60;12.55;;;;;;;12.40;61.99;102440.66;4848222;28;119559;-75
2021/10/10 07:09:04;;;;;;;18.50;12.02;;;;;;;12.38;61.67;102432.06;4835663;28;121308;-75
2021/10/10 07:11:31;;;;;;;21.77;12.07;;;;;;;12.46;61.57;102430.72;4847756;28;120211;-75
2021/10/10 07:13:57;;;;;;;19.73;11.23;;;;;;;12.38;61.62;102410.03;4841721;28;120208;-75
2021/10/10 07:16:27;;;;;;;21.05;12.85;;;;;;;12.57;61.30;102434.06;4841207;28;119536;-74
2021/10/10 07:18:55;;;;;;;22.75;12.20;;;;;;;12.61;61.65;102431.25;4847428;28;119934;-75
2021/10/10 07:26:38;;;;;;;17.80;11.63;;;;;;;12.60;61.58;102399.41;4835408;28;120056;-75
2021/10/10 07:29:05;;;;;;;19.55;12.25;;;;;;;12.84;61.78;102428.44;4845076;28;119504;-75
2021/10/10 07:31:31;;;;;;;19.70;13.38;;;;;;;12.91;62.07;102435.78;4844585;28;119597;-75
2021/10/10 07:33:56;;;;;;;20.17;12.43;;;;;;;12.93;62.03;102422.34;4834327;28;119359;-75
2021/10/10 07:36:22;;;;;;;20.70;12.27;;;;;;;13.02;61.94;102435.56;4819604;28;119938;-75
2021/10/10 07:38:48;;;;;;;18.80;11.18;;;;;;;13.10;61.51;102439.72;4864663;28;119735;-75
2021/10/10 07:41:15;;;;;;;18.60;12.55;;;;;;;13.15;61.56;102439.22;4839923;28;119784;-75
2021/10/10 07:43:42;;;;;;;20.48;11.65;;;;;;;13.19;61.71;102435.22;4849813;28;120297;-75
2021/10/10 07:46:18;;;;;;;18.63;12.27;;;;;;;13.17;61.63;102431.31;4836562;28;119601;-76
2021/10/10 07:48:44;;;;;;;19.52;11.77;;;;;;;13.32;61.57;102438.09;4847352;28;119559;-75
2021/10/10 07:51:11;;;;;;;22.75;12.80;;;;;;;13.39;60.96;102431.66;4849753;28;124865;-75
2021/10/10 07:53:36;;;;;;;20.80;12.10;;;;;;;13.43;60.80;102427.59;4833047;28;119850;-74
2021/10/10 07:56:02;;;;;;;19.67;12.00;;;;;;;13.48;61.10;102420.81;4849823;28;119925;-74
2021/10/10 07:58:29;;;;;;;17.00;11.90;;;;;;;13.54;61.13;102421.88;4829414;28;121474;-75
2021/10/10 08:00:56;;;;;;;19.02;12.27;;;;;;;13.56;61.02;102413.19;4834651;28;119794;-75
2021/10/10 08:03:23;;;;;;;17.52;11.68;;;;;;;13.58;61.08;102408.78;4844512;28;119765;-75
2021/10/10 08:05:50;;;;;;;20.52;12.30;;;;;;;13.69;60.96;102408.53;4851333;28;120011;-75
2021/10/10 08:08:16;;;;;;;16.40;11.80;;;;;;;13.69;60.58;102409.28;4850115;28;119664;-75
2021/10/10 08:10:43;;;;;;;22.25;12.02;;;;;;;13.74;60.34;102414.31;4846703;28;120168;-75
2021/10/10 08:13:09;;;;;;;17.85;12.25;;;;;;;13.82;60.51;102436.97;4825727;28;119510;-75
2021/10/10 08:15:36;;;;;;;23.95;13.05;;;;;;;13.83;60.51;102433.00;4824660;28;121300;-75
2021/10/10 08:18:03;;;;;;;18.30;12.20;;;;;;;13.87;60.52;102425.44;4842098;28;120583;-75
2021/10/10 08:20:30;;;;;;;23.35;13.98;;;;;;;13.90;60.54;102413.53;4839348;28;119490;-75
2021/10/10 08:22:58;;;;;;;18.35;12.57;;;;;;;13.91;60.35;102406.81;4828507;28;119696;-75
2021/10/10 08:25:25;;;;;;;18.25;11.80;;;;;;;14.01;60.54;102414.06;4838492;28;120539;-74
2021/10/10 08:27:51;;;;;;;21.70;13.48;;;;;;;14.05;60.11;102406.47;4846787;28;119421;-75
2021/10/10 08:30:18;;;;;;;17.23;12.07;;;;;;;13.91;60.12;102384.72;4842965;28;119898;-75
2021/10/10 08:32:46;;;;;;;19.33;12.27;;;;;;;14.09;59.63;102418.19;4840632;28;119970;-75
2021/10/10 08:35:13;;;;;;;21.80;12.50;;;;;;;14.07;59.42;102420.59;4806053;28;119887;-75
2021/10/10 08:37:42;;;;;;;18.50;12.10;;;;;;;14.12;59.47;102411.00;4826814;28;120769;-76
2021/10/10 08:40:09;;;;;;;20.40;12.27;;;;;;;14.14;59.60;102417.66;4841885;28;120904;-74
2021/10/10 08:42:39;;;;;;;16.65;11.95;;;;;;;14.28;58.61;102435.06;4816029;28;119472;-75
2021/10/10 08:45:09;;;;;;;17.17;11.68;;;;;;;14.31;57.64;102414.88;4838331;28;119648;-75
2021/10/10 08:47:43;;;;;;;19.10;11.77;;;;;;;14.35;58.58;102405.28;4846592;28;123463;-75
2021/10/10 08:50:15;;;;;;;23.77;12.73;;;;;;;14.40;58.88;102406.72;4844510;28;119261;-75
2021/10/10 08:52:43;;;;;;;21.90;12.35;;;;;;;14.50;58.76;102404.94;4843376;28;120022;-75
2021/10/10 08:55:10;;;;;;;18.58;11.85;;;;;;;14.53;58.54;102396.56;4841467;28;119407;-75
2021/10/10 08:57:37;;;;;;;16.80;12.55;;;;;;;14.67;58.69;102404.47;4840307;28;120547;-75
2021/10/10 09:00:09;;;;;;;19.35;11.60;;;;;;;14.73;58.80;102405.47;4858231;28;120052;-75
2021/10/10 09:02:38;;;;;;;19.58;12.13;;;;;;;14.73;57.84;102399.19;4810015;28;119927;-75
2021/10/10 09:05:05;;;;;;;23.08;12.93;;;;;;;14.88;57.92;102400.31;4847433;28;122022;-75
2021/10/10 09:07:32;;;;;;;16.73;11.82;;;;;;;14.93;57.94;102385.19;4826129;28;120141;-75
2021/10/10 09:10:16;;;;;;;22.13;12.13;;;;;;;15.04;58.11;102388.41;4844794;28;120681;-74
2021/10/10 09:12:42;;;;;;;18.48;11.82;;;;;;;15.11;58.41;102381.88;4829554;28;120311;-74
2021/10/10 09:15:09;;;;;;;18.25;12.30;;;;;;;15.09;57.93;102362.97;4811182;28;121206;-74
2021/10/10 09:17:35;;;;;;;17.10;12.10;;;;;;;15.18;57.90;102374.19;4825173;28;119517;-74
2021/10/10 09:20:05;;;;;;;17.77;11.90;;;;;;;15.16;57.69;102365.56;4824025;28;120235;-74
2021/10/10 09:22:31;;;;;;;19.65;11.93;;;;;;;15.20;56.61;102376.50;4840388;28;119543;-75
2021/10/10 09:25:10;;;;;;;19.02;12.73;;;;;;;15.28;55.82;102389.66;4835953;28;120563;-74
2021/10/10 09:27:35;;;;;;;16.83;11.40;;;;;;;15.28;56.15;102395.19;4826736;28;119632;-74
2021/10/10 09:30:05;;;;;;;21.13;12.05;;;;;;;15.28;56.14;102397.94;4839276;28;120454;-74
2021/10/10 09:32:32;;;;;;;19.63;12.07;;;;;;;15.30;56.72;102400.25;4847043;28;120764;-74
2021/10/10 09:34:58;;;;;;;24.10;11.65;;;;;;;15.36;55.88;102387.44;4829705;28;120286;-74
2021/10/10 09:37:41;;;;;;;19.90;11.88;;;;;;;15.38;55.19;102381.47;4828257;28;120585;-74
2021/10/10 09:40:18;;;;;;;17.05;11.60;;;;;;;15.43;56.37;102378.16;4849375;28;120718;-74
2021/10/10 09:42:47;;;;;;;21.75;12.45;;;;;;;15.46;56.79;102377.28;4845859;28;120020;-74
2021/10/10 09:45:16;;;;;;;17.88;12.40;;;;;;;15.54;55.92;102378.59;4833998;28;120424;-74
2021/10/10 09:47:51;;;;;;;19.60;11.82;;;;;;;15.58;56.10;102382.00;4831468;28;119951;-74
2021/10/10 09:50:19;;;;;;;16.73;11.60;;;;;;;15.61;55.36;102375.63;4849817;28;119521;-74
2021/10/10 09:52:46;;;;;;;19.58;10.82;;;;;;;15.63;55.04;102387.03;4813052;28;120837;-74
2021/10/10 09:55:12;;;;;;;18.55;12.13;;;;;;;15.62;54.35;102380.72;4868361;28;119742;-73
2021/10/10 09:57:48;;;;;;;20.00;12.68;;;;;;;15.66;53.71;102375.06;4848351;28;120041;-74
2021/10/10 10:00:22;;;;;;;18.92;12.48;;;;;;;15.65;54.02;102356.94;4849555;28;119655;-74
2021/10/10 10:02:50;;;;;;;20.63;13.25;;;;;;;15.74;53.36;102359.78;4851108;28;121097;-74
2021/10/10 10:05:30;;;;;;;20.95;12.80;;;;;;;15.85;54.95;102360.22;4840183;28;119831;-74
2021/10/10 10:07:59;;;;;;;18.80;12.82;;;;;;;15.87;54.09;102352.25;4832733;28;120264;-74
2021/10/10 10:10:30;;;;;;;20.10;12.48;;;;;;;15.84;54.07;102352.34;4843646;28;119523;-74
2021/10/10 10:12:58;;;;;;;21.88;12.80;;;;;;;15.94;52.66;102374.13;4844085;28;120067;-74
2021/10/10 10:15:27;;;;;;;18.73;11.35;;;;;;;15.95;54.89;102370.16;4844743;28;119957;-74
2021/10/10 10:17:55;;;;;;;20.30;12.68;;;;;;;15.95;53.28;102364.59;4820621;28;120359;-75
2021/10/10 10:20:23;;;;;;;21.27;12.35;;;;;;;15.90;51.80;102348.56;4840986;28;119573;-74
2021/10/10 10:22:53;;;;;;;19.00;12.77;;;;;;;15.81;52.69;102337.41;4840884;28;120657;-74
2021/10/10 10:25:22;;;;;;;19.95;12.00;;;;;;;15.83;51.56;102332.19;4844255;28;120638;-74
2021/10/10 10:27:50;;;;;;;20.13;11.82;;;;;;;15.93;52.34;102344.13;4834983;28;119920;-74
2021/10/10 10:30:20;;;;;;;19.83;11.70;;;;;;;16.05;52.66;102339.78;4852134;28;122030;-74
2021/10/10 10:32:48;;;;;;;17.58;12.30;;;;;;;16.08;53.44;102333.34;4848643;28;119809;-74
2021/10/10 10:35:18;;;;;;;18.85;12.02;;;;;;;16.16;53.34;102329.13;4853275;28;120809;-74
2021/10/10 10:37:47;;;;;;;26.02;12.82;;;;;;;16.21;53.13;102328.53;4828260;28;120467;-74
2021/10/10 10:40:19;;;;;;;20.60;12.27;;;;;;;16.25;53.49;102326.41;4846522;28;119429;-74
2021/10/10 10:42:47;;;;;;;18.05;12.23;;;;;;;16.24;53.08;102322.09;4849707;28;120201;-73
2021/10/10 10:45:27;;;;;;;19.08;11.32;;;;;;;16.20;53.72;102313.91;4840360;28;120206;-74
2021/10/10 10:47:58;;;;;;;18.02;11.43;;;;;;;16.29;54.43;102338.13;4842872;28;120544;-74
2021/10/10 10:50:27;;;;;;;17.30;11.60;;;;;;;16.25;52.63;102337.47;4846647;28;120201;-74
2021/10/10 10:53:08;;;;;;;18.83;12.18;;;;;;;16.30;53.29;102342.44;4833461;28;122217;-75
2021/10/10 10:55:42;;;;;;;17.52;10.88;;;;;;;16.27;52.42;102330.25;4851750;28;120344;-74
2021/10/10 10:58:13;;;;;;;17.45;11.88;;;;;;;16.23;52.29;102318.56;4818486;28;121094;-73
2021/10/10 11:00:48;;;;;;;19.98;11.68;;;;;;;16.20;52.47;102313.91;4842051;28;121754;-74
2021/10/10 11:03:25;;;;;;;16.95;11.30;;;;;;;16.26;53.01;102325.19;4833170;28;119845;-73
2021/10/10 11:06:00;;;;;;;16.23;11.82;;;;;;;16.26;52.29;102317.66;4840586;28;122350;-75
2021/10/10 11:08:27;;;;;;;16.42;11.18;;;;;;;16.25;51.52;102320.88;4814022;28;119970;-75